Time;durP1;ratioP1;P1;durP2;ratioP2;P2;SDS_P1;SDS_P2;PMS_P1;PMS_P2;Temp;Humidity;BMP_temperature;BMP_pressure;BME280_temperature;BME280_humidity;BME280_pressure;Samples;Min_cycle;Max_cycle;Signal;HPM_P1;HPM_P2
2023/10/01 00:00:12;;;;;;;12.70;4.82;;;15.70;99.90;;;;;;5064633;28;38416;-78
2023/10/01 00:02:39;;;;;;;12.23;4.30;;;15.70;99.90;;;;;;5045607;28;37374;-78
2023/10/01 00:05:06;;;;;;;15.45;4.40;;;15.80;99.90;;;;;;5040083;28;37078;-78
2023/10/01 00:07:39;;;;;;;14.30;4.28;;;15.70;99.90;;;;;;5046617;28;37731;-79
2023/10/01 00:10:12;;;;;;;16.70;4.68;;;15.70;99.90;;;;;;5042703;28;39114;-77
2023/10/01 00:12:39;;;;;;;19.85;4.97;;;15.70;99.90;;;;;;5046341;28;37693;-77
2023/10/01 00:15:10;;;;;;;14.32;4.40;;;15.70;99.90;;;;;;5058996;28;36865;-77
2023/10/01 00:17:37;;;;;;;14.80;3.85;;;15.70;99.90;;;;;;5062888;28;38916;-77
2023/10/01 00:20:23;;;;;;;14.75;3.95;;;15.70;99.90;;;;;;5063001;28;38683;-77
2023/10/01 00:23:02;;;;;;;14.98;4.60;;;15.70;99.90;;;;;;5058918;28;48701;-77
2023/10/01 00:25:33;;;;;;;15.38;4.20;;;15.60;99.90;;;;;;5055641;28;47181;-78
2023/10/01 00:27:59;;;;;;;13.50;4.03;;;15.50;99.90;;;;;;5068502;28;38784;-78
2023/10/01 00:30:31;;;;;;;13.32;4.10;;;15.50;99.90;;;;;;5052174;28;37668;-78
2023/10/01 00:32:57;;;;;;;14.93;5.30;;;15.50;99.90;;;;;;5065305;28;38471;-78
2023/10/01 00:35:25;;;;;;;9.82;3.92;;;15.40;99.90;;;;;;5051870;28;37974;-77
2023/10/01 00:37:52;;;;;;;12.88;4.40;;;15.40;99.90;;;;;;5049322;28;39738;-78
2023/10/01 00:40:18;;;;;;;15.80;4.80;;;15.40;99.90;;;;;;5065826;28;39941;-78
2023/10/01 00:42:46;;;;;;;14.55;4.20;;;15.40;99.90;;;;;;5048924;28;37438;-78
2023/10/01 00:45:13;;;;;;;14.38;4.60;;;15.40;99.90;;;;;;5046435;28;36129;-78
2023/10/01 00:47:42;;;;;;;13.35;4.20;;;15.40;99.90;;;;;;5045974;28;37725;-78
2023/10/01 00:50:17;;;;;;;14.32;5.10;;;15.40;99.90;;;;;;5065985;28;38714;-78
2023/10/01 00:52:47;;;;;;;19.92;4.88;;;15.40;99.90;;;;;;5056005;28;38028;-78
2023/10/01 00:55:13;;;;;;;13.32;4.68;;;15.30;99.90;;;;;;5051402;28;36635;-78
2023/10/01 00:57:41;;;;;;;16.17;4.63;;;15.30;99.90;;;;;;5066189;28;39375;-78
2023/10/01 01:00:15;;;;;;;11.77;4.63;;;15.30;99.90;;;;;;5050772;28;37841;-79
2023/10/01 01:02:56;;;;;;;13.60;5.43;;;15.30;99.90;;;;;;5490446;22;38392;-79
2023/10/01 01:05:36;;;;;;;13.77;5.20;;;15.20;99.90;;;;;;5057564;28;35881;-80
2023/10/01 01:08:20;;;;;;;11.38;4.95;;;15.20;99.90;;;;;;5059026;28;39740;-79
2023/10/01 01:10:49;;;;;;;14.57;5.20;;;15.20;99.90;;;;;;5036060;28;37582;-79
2023/10/01 01:13:18;;;;;;;12.65;4.72;;;15.10;99.90;;;;;;5051943;28;37022;-79
2023/10/01 01:15:51;;;;;;;15.70;4.85;;;15.10;99.90;;;;;;5038910;28;36214;-79
2023/10/01 01:18:20;;;;;;;15.90;4.82;;;15.10;99.90;;;;;;5038023;28;37512;-79
2023/10/01 01:20:48;;;;;;;13.50;5.13;;;15.10;99.90;;;;;;5034007;28;39253;-79
2023/10/01 01:23:21;;;;;;;16.30;5.00;;;15.10;99.90;;;;;;5045681;28;38407;-79
2023/10/01 01:25:51;;;;;;;;;;;15.10;99.90;;;;;;5027827;28;37210;-79
2023/10/01 01:28:27;;;;;;;14.02;5.15;;;15.20;99.90;;;;;;5050517;28;38892;-79
2023/10/01 01:30:55;;;;;;;18.60;6.68;;;15.20;99.90;;;;;;5032339;28;38035;-79
2023/10/01 01:33:21;;;;;;;17.23;5.15;;;15.20;99.90;;;;;;5033504;28;37279;-79
2023/10/01 01:35:49;;;;;;;16.65;5.78;;;15.20;99.90;;;;;;5035407;28;37555;-79
2023/10/01 01:38:15;;;;;;;19.92;5.55;;;15.20;99.90;;;;;;5046581;28;39054;-79
2023/10/01 01:40:42;;;;;;;16.15;5.15;;;15.30;99.90;;;;;;5051176;28;39225;-79
2023/10/01 01:43:30;;;;;;;12.65;4.88;;;15.30;99.90;;;;;;5045946;28;38924;-79
2023/10/01 01:46:04;;;;;;;16.08;6.10;;;15.30;99.90;;;;;;5050943;28;36648;-79
2023/10/01 01:48:34;;;;;;;16.35;4.95;;;15.30;99.90;;;;;;5050802;28;49151;-79
2023/10/01 01:51:01;;;;;;;15.23;5.28;;;15.30;99.90;;;;;;5049175;28;38836;-79
2023/10/01 01:53:35;;;;;;;14.07;5.85;;;15.30;99.90;;;;;;5059202;28;48190;-79
2023/10/01 01:56:09;;;;;;;13.48;5.78;;;15.30;99.90;;;;;;5023150;28;35989;-79
2023/10/01 01:58:37;;;;;;;16.95;5.93;;;15.20;99.90;;;;;;5033572;28;37639;-79
2023/10/01 02:03:40;;;;;;;12.25;5.00;;;15.20;99.90;;;;;;5053230;28;38917;-79
2023/10/01 02:06:07;;;;;;;16.55;5.43;;;15.20;99.90;;;;;;5030074;28;35917;-79
2023/10/01 02:08:48;;;;;;;15.32;6.25;;;15.10;99.90;;;;;;5048937;28;37675;-79
2023/10/01 02:11:14;;;;;;;14.98;6.10;;;15.10;99.90;;;;;;5032111;28;37916;-78
2023/10/01 02:13:41;;;;;;;13.48;5.68;;;15.00;99.90;;;;;;5034068;28;37384;-79
2023/10/01 02:19:17;;;;;;;14.38;5.00;;;15.10;99.90;;;;;;5052775;28;39980;-79
2023/10/01 02:21:52;;;;;;;16.65;5.80;;;15.10;99.90;;;;;;5048582;28;48560;-79
2023/10/01 02:24:23;;;;;;;10.82;5.75;;;15.10;99.90;;;;;;5035339;28;37526;-77
2023/10/01 02:26:59;;;;;;;15.63;5.70;;;15.10;99.90;;;;;;5023631;28;36997;-79
2023/10/01 02:29:29;;;;;;;13.57;5.32;;;15.10;99.90;;;;;;5052419;28;38985;-79
2023/10/01 02:31:56;;;;;;;11.85;5.43;;;15.10;99.90;;;;;;5040377;28;37757;-77
2023/10/01 02:34:29;;;;;;;14.80;6.28;;;15.10;99.90;;;;;;5036309;28;37392;-78
2023/10/01 02:36:56;;;;;;;14.50;6.05;;;15.10;99.90;;;;;;5026684;28;36186;-78
2023/10/01 02:39:28;;;;;;;17.50;6.00;;;15.10;99.90;;;;;;5053788;28;38682;-79
2023/10/01 02:44:34;;;;;;;14.10;5.13;;;15.10;99.90;;;;;;5045530;28;48775;-78
2023/10/01 02:47:09;;;;;;;16.67;6.43;;;15.10;99.90;;;;;;5030681;28;36431;-79
2023/10/01 02:49:48;;;;;;;14.70;6.00;;;15.10;99.90;;;;;;5054002;28;48038;-79
2023/10/01 02:52:16;;;;;;;13.93;5.25;;;15.10;99.90;;;;;;5044335;28;38512;-78
2023/10/01 02:54:42;;;;;;;14.25;6.00;;;15.20;99.90;;;;;;5052677;28;38537;-78
2023/10/01 02:57:23;;;;;;;15.93;6.07;;;15.10;99.90;;;;;;5026862;28;38027;-78
2023/10/01 03:02:38;;;;;;;15.85;5.85;;;15.20;99.90;;;;;;5058087;28;39326;-78
2023/10/01 03:05:07;;;;;;;13.43;5.70;;;15.20;99.90;;;;;;5034056;28;37331;-78
2023/10/01 03:07:40;;;;;;;17.63;6.80;;;15.20;99.90;;;;;;5054562;28;38451;-79
2023/10/01 03:10:15;;;;;;;13.55;5.88;;;15.20;99.90;;;;;;5045802;28;38211;-78
2023/10/01 03:12:42;;;;;;;14.07;6.18;;;15.20;99.90;;;;;;5048696;28;39103;-79
2023/10/01 03:17:39;;;;;;;15.85;6.03;;;15.30;99.90;;;;;;5051665;28;37325;-79
2023/10/01 03:21:02;;;;;;;15.73;6.40;;;15.20;99.90;;;;;;5050384;28;39475;-78
2023/10/01 03:22:53;;;;;;;13.00;5.47;;;15.30;99.90;;;;;;5044835;28;37727;-79
2023/10/01 03:25:28;;;;;;;16.65;6.18;;;15.30;99.90;;;;;;5024332;28;37448;-79
2023/10/01 03:27:58;;;;;;;14.68;5.40;;;15.30;99.90;;;;;;5044182;28;37606;-79
2023/10/01 03:30:31;;;;;;;14.43;6.55;;;15.40;99.90;;;;;;5043089;28;37700;-79
2023/10/01 03:33:01;;;;;;;13.82;6.28;;;15.40;99.90;;;;;;5043480;28;38598;-79
2023/10/01 03:35:27;;;;;;;16.23;6.28;;;15.40;99.90;;;;;;5024648;28;47368;-78
2023/10/01 03:38:14;;;;;;;11.55;6.05;;;15.40;99.90;;;;;;5028777;28;36303;-79
2023/10/01 03:43:37;;;;;;;12.18;6.03;;;15.50;99.90;;;;;;5048862;28;39349;-79
2023/10/01 03:49:00;;;;;;;15.20;6.45;;;15.50;99.90;;;;;;5033746;28;38093;-78
2023/10/01 03:54:52;;;;;;;13.73;6.35;;;15.50;99.90;;;;;;5044935;28;39948;-79
2023/10/01 03:57:11;;;;;;;16.25;6.57;;;15.60;99.90;;;;;;5049177;28;38038;-79
2023/10/01 03:59:40;;;;;;;14.18;6.47;;;15.60;99.90;;;;;;5032869;28;36309;-78
2023/10/01 04:02:27;;;;;;;16.98;7.00;;;15.60;99.90;;;;;;5050958;28;39788;-78
2023/10/01 04:04:56;;;;;;;13.77;6.47;;;15.60;99.90;;;;;;5045879;28;39690;-78
2023/10/01 04:07:26;;;;;;;10.68;6.28;;;15.60;99.90;;;;;;5043370;28;37539;-78
2023/10/01 04:09:53;;;;;;;16.60;7.00;;;15.50;99.90;;;;;;5048171;28;38045;-79
2023/10/01 04:12:19;;;;;;;14.63;6.65;;;15.50;99.90;;;;;;5047885;28;39778;-78
2023/10/01 04:14:52;;;;;;;15.45;6.25;;;15.50;99.90;;;;;;5049176;28;38622;-79
2023/10/01 04:17:19;;;;;;;14.32;6.82;;;15.50;99.90;;;;;;5054599;28;38232;-79
2023/10/01 04:19:56;;;;;;;16.48;6.53;;;15.50;99.90;;;;;;5033308;28;36253;-79
2023/10/01 04:22:25;;;;;;;12.93;6.47;;;15.40;99.90;;;;;;5017993;28;38592;-78
2023/10/01 04:25:01;;;;;;;16.30;6.82;;;15.40;99.90;;;;;;5043525;28;38888;-79
2023/10/01 04:27:30;;;;;;;17.77;6.97;;;15.30;99.90;;;;;;5054465;28;38781;-78
2023/10/01 04:29:58;;;;;;;14.40;7.25;;;15.30;99.90;;;;;;5049189;28;37531;-79
2023/10/01 04:32:27;;;;;;;16.10;6.78;;;15.30;99.90;;;;;;5035397;28;37694;-79
2023/10/01 04:35:11;;;;;;;12.50;6.28;;;15.20;99.90;;;;;;5051500;28;39281;-79
2023/10/01 04:37:37;;;;;;;15.15;6.68;;;15.20;99.90;;;;;;5051199;28;46995;-79
2023/10/01 04:40:50;;;;;;;15.77;6.80;;;15.10;99.90;;;;;;5056081;28;37565;-79
2023/10/01 04:42:51;;;;;;;15.60;7.03;;;15.10;99.90;;;;;;5046721;28;49337;-79
2023/10/01 04:45:23;;;;;;;16.23;7.38;;;15.10;99.90;;;;;;5047318;28;39355;-79
2023/10/01 04:47:55;;;;;;;19.42;7.93;;;15.00;99.90;;;;;;5054758;28;39106;-79
2023/10/01 04:50:29;;;;;;;16.05;7.13;;;15.00;99.90;;;;;;5062174;28;37326;-79
2023/10/01 04:52:59;;;;;;;19.05;7.57;;;15.00;99.90;;;;;;5025123;28;38164;-78
2023/10/01 04:55:28;;;;;;;17.02;7.25;;;15.00;99.90;;;;;;5045807;28;39902;-79
2023/10/01 04:57:56;;;;;;;15.40;7.25;;;14.90;99.90;;;;;;5055177;28;38434;-79
2023/10/01 05:00:25;;;;;;;16.23;6.63;;;14.90;99.90;;;;;;5040069;28;36398;-78
2023/10/01 05:02:52;;;;;;;13.57;7.18;;;14.90;99.90;;;;;;5051189;28;38848;-79
2023/10/01 05:05:25;;;;;;;14.23;6.57;;;14.90;99.90;;;;;;5029735;28;38986;-78
2023/10/01 05:07:55;;;;;;;16.08;7.88;;;14.80;99.90;;;;;;5034732;28;37354;-78
2023/10/01 05:10:22;;;;;;;18.23;7.75;;;14.80;99.90;;;;;;5030426;28;36064;-78
2023/10/01 05:12:54;;;;;;;16.48;7.40;;;14.80;99.90;;;;;;5057050;28;38711;-79
2023/10/01 05:15:34;;;;;;;16.83;6.97;;;14.80;99.90;;;;;;5033592;28;37568;-78
2023/10/01 05:18:02;;;;;;;19.65;8.70;;;14.70;99.90;;;;;;5036924;28;20091;-78
2023/10/01 05:20:28;;;;;;;16.83;7.82;;;14.80;99.90;;;;;;5022822;28;36696;-78
2023/10/01 05:22:57;;;;;;;14.95;7.88;;;14.80;99.90;;;;;;5046624;28;38664;-78
2023/10/01 05:25:26;;;;;;;19.45;7.53;;;14.80;99.90;;;;;;5047362;28;39091;-78
2023/10/01 05:27:55;;;;;;;16.42;7.18;;;14.80;99.90;;;;;;5044854;28;38493;-77
2023/10/01 05:30:42;;;;;;;16.65;7.93;;;14.80;99.90;;;;;;5055328;28;37623;-78
2023/10/01 05:33:11;;;;;;;18.77;8.43;;;14.70;99.90;;;;;;5050831;28;38590;-77
2023/10/01 05:35:41;;;;;;;20.98;8.57;;;14.70;99.90;;;;;;5039821;28;37756;-78
2023/10/01 05:38:10;;;;;;;16.58;7.55;;;14.70;99.90;;;;;;5039106;28;38024;-78
2023/10/01 05:40:40;;;;;;;13.93;7.20;;;14.60;99.90;;;;;;5056593;28;38283;-78
2023/10/01 05:43:16;;;;;;;16.13;7.82;;;14.70;99.90;;;;;;5034483;28;38011;-78
2023/10/01 05:45:52;;;;;;;15.00;8.07;;;14.60;99.90;;;;;;5036833;28;37907;-78
2023/10/01 05:48:19;;;;;;;17.67;8.10;;;14.60;99.90;;;;;;5054752;28;39696;-78
2023/10/01 05:50:46;;;;;;;13.63;7.65;;;14.60;99.90;;;;;;5028611;28;36753;-78
2023/10/01 05:53:13;;;;;;;15.32;7.30;;;14.60;99.90;;;;;;5054391;28;38930;-77
2023/10/01 05:55:43;;;;;;;16.58;7.60;;;14.60;99.90;;;;;;5034670;28;37485;-77
2023/10/01 05:58:13;;;;;;;13.35;7.07;;;14.50;99.90;;;;;;5053365;28;38385;-77
2023/10/01 06:00:45;;;;;;;14.57;7.57;;;14.50;99.90;;;;;;5036080;28;36005;-77
2023/10/01 06:03:18;;;;;;;13.00;7.63;;;14.60;99.90;;;;;;5051316;28;37893;-77
2023/10/01 06:05:50;;;;;;;18.27;8.77;;;14.50;99.90;;;;;;5051715;28;39269;-78
2023/10/01 06:08:17;;;;;;;21.55;8.95;;;14.50;99.90;;;;;;5032807;28;37566;-77
2023/10/01 06:11:06;;;;;;;15.93;8.05;;;14.50;99.90;;;;;;5054056;28;36039;-77
2023/10/01 06:13:38;;;;;;;16.50;9.05;;;14.50;99.90;;;;;;5051856;28;48096;-77
2023/10/01 06:16:13;;;;;;;17.98;7.72;;;14.50;99.90;;;;;;5026036;28;38170;-79
2023/10/01 06:18:56;;;;;;;21.48;8.27;;;14.50;99.90;;;;;;5026679;28;37263;-78
2023/10/01 06:21:23;;;;;;;;;;;14.60;99.90;;;;;;5046669;28;36194;-78
2023/10/01 06:23:49;;;;;;;18.70;8.43;;;14.60;99.90;;;;;;5049043;28;39280;-78
2023/10/01 06:26:36;;;;;;;16.25;7.65;;;14.60;99.90;;;;;;5054136;28;39421;-78
2023/10/01 06:29:07;;;;;;;19.13;8.00;;;14.60;99.90;;;;;;5047409;28;37357;-77
2023/10/01 06:31:58;;;;;;;16.20;9.00;;;14.70;99.90;;;;;;5024212;28;36085;-78
2023/10/01 06:34:26;;;;;;;16.52;8.95;;;14.70;99.90;;;;;;5024059;28;38111;-77
2023/10/01 06:36:58;;;;;;;20.77;9.75;;;14.70;99.90;;;;;;5033566;28;39233;-78
2023/10/01 06:39:30;;;;;;;17.92;8.50;;;14.70;99.90;;;;;;5047709;28;37975;-77
2023/10/01 06:44:43;;;;;;;15.43;8.05;;;14.80;99.90;;;;;;5044342;28;49531;-79
2023/10/01 06:47:16;;;;;;;16.67;8.23;;;14.90;99.90;;;;;;5023237;28;38035;-78
2023/10/01 06:49:57;;;;;;;20.67;8.80;;;14.90;99.90;;;;;;5024529;28;37402;-78
2023/10/01 06:52:27;;;;;;;16.33;8.30;;;14.90;99.90;;;;;;5039080;28;36767;-77
2023/10/01 06:54:57;;;;;;;17.90;8.45;;;15.00;99.90;;;;;;5024023;28;38074;-77
2023/10/01 06:57:27;;;;;;;17.23;8.70;;;15.10;99.90;;;;;;5041683;28;37760;-77
2023/10/01 06:59:56;;;;;;;15.25;8.45;;;15.10;99.90;;;;;;5041282;28;38543;-77
2023/10/01 07:02:25;;;;;;;21.05;8.45;;;15.20;99.90;;;;;;5037899;28;37296;-77
2023/10/01 07:04:58;;;;;;;18.58;9.13;;;15.30;99.90;;;;;;5026960;28;37911;-77
2023/10/01 07:07:26;;;;;;;17.98;8.73;;;15.30;99.90;;;;;;5040773;28;37636;-77
2023/10/01 07:09:53;;;;;;;18.33;8.38;;;15.40;99.90;;;;;;5043374;28;38276;-77
2023/10/01 07:12:23;;;;;;;18.15;8.95;;;15.40;99.90;;;;;;5027956;28;36039;-77
2023/10/01 07:14:51;;;;;;;20.05;8.82;;;15.40;99.90;;;;;;5041860;28;37157;-78
2023/10/01 07:17:19;;;;;;;16.05;8.82;;;15.50;99.90;;;;;;5023930;28;37622;-78
2023/10/01 07:20:00;;;;;;;21.77;9.13;;;15.50;99.90;;;;;;5024986;28;37584;-77
2023/10/01 07:22:31;;;;;;;15.45;8.05;;;15.60;99.90;;;;;;5037657;28;36263;-77
2023/10/01 07:24:59;;;;;;;21.80;9.48;;;15.60;99.90;;;;;;5039453;28;37713;-77
2023/10/01 07:27:27;;;;;;;20.77;9.68;;;15.60;99.90;;;;;;5035628;28;39561;-78
2023/10/01 07:29:54;;;;;;;18.38;9.25;;;15.70;99.90;;;;;;5021660;28;38289;-77
2023/10/01 07:32:24;;;;;;;18.33;8.73;;;15.70;99.90;;;;;;5022633;28;36942;-77
2023/10/01 07:34:59;;;;;;;16.77;8.70;;;15.80;99.90;;;;;;5033666;28;38642;-77
2023/10/01 07:37:26;;;;;;;18.60;9.15;;;15.90;99.90;;;;;;5040204;28;39841;-77
2023/10/01 07:39:55;;;;;;;15.25;8.52;;;15.90;99.90;;;;;;5024848;28;37482;-77
2023/10/01 07:42:25;;;;;;;23.05;9.77;;;15.90;99.90;;;;;;5043388;28;37370;-77
2023/10/01 07:44:56;;;;;;;17.27;8.75;;;16.00;99.90;;;;;;5041480;28;39478;-76
2023/10/01 07:47:29;;;;;;;16.95;8.98;;;16.00;99.90;;;;;;5040907;28;38759;-77
2023/10/01 07:50:02;;;;;;;20.95;9.98;;;16.10;99.90;;;;;;5026837;28;38935;-77
2023/10/01 07:52:29;;;;;;;18.95;9.25;;;16.30;99.90;;;;;;5024362;28;36081;-77
2023/10/01 07:54:57;;;;;;;19.52;9.55;;;16.40;99.90;;;;;;5022882;28;37700;-76
2023/10/01 07:57:27;;;;;;;19.85;9.38;;;16.40;99.90;;;;;;5022776;28;38596;-76
2023/10/01 07:59:59;;;;;;;19.55;9.45;;;16.60;99.90;;;;;;5034826;28;38284;-77
2023/10/01 08:02:28;;;;;;;24.45;9.75;;;16.70;99.90;;;;;;5033931;28;37084;-76
2023/10/01 08:04:58;;;;;;;17.33;9.07;;;16.80;99.90;;;;;;5021586;28;37737;-76
2023/10/01 08:07:39;;;;;;;24.95;9.38;;;16.90;99.90;;;;;;5025877;28;38007;-77
2023/10/01 08:10:16;;;;;;;18.55;9.40;;;16.90;99.90;;;;;;5042198;28;38340;-77
2023/10/01 08:13:04;;;;;;;21.02;9.23;;;17.00;99.90;;;;;;5038644;28;48490;-76
2023/10/01 08:15:31;;;;;;;17.50;8.93;;;17.10;99.90;;;;;;5019166;28;46987;-77
2023/10/01 08:20:57;;;;;;;17.98;9.15;;;17.30;99.90;;;;;;5041753;28;47646;-74
2023/10/01 08:23:31;;;;;;;20.90;9.35;;;17.40;99.90;;;;;;5041498;28;37543;-74
2023/10/01 08:26:03;;;;;;;18.65;9.80;;;17.50;99.90;;;;;;5032590;28;37830;-74
2023/10/01 08:28:29;;;;;;;18.33;8.88;;;17.60;99.90;;;;;;4995947;28;47220;-75
2023/10/01 08:31:01;;;;;;;18.17;9.77;;;17.70;99.90;;;;;;5045478;28;38708;-75
2023/10/01 08:33:32;;;;;;;16.48;8.50;;;17.70;99.90;;;;;;5030797;28;46968;-76
2023/10/01 08:36:12;;;;;;;18.55;9.98;;;17.80;99.90;;;;;;5031171;28;39020;-76
2023/10/01 08:38:47;;;;;;;17.27;8.90;;;17.80;99.90;;;;;;5023609;28;47680;-77
2023/10/01 08:41:47;;;;;;;18.00;9.20;;;17.80;99.90;;;;;;5035776;28;37759;-75
2023/10/01 08:44:30;;;;;;;17.92;9.40;;;17.80;99.90;;;;;;5015871;28;36674;-74
2023/10/01 08:47:21;;;;;;;19.65;9.80;;;17.70;99.90;;;;;;5040675;28;38717;-75
2023/10/01 08:49:51;;;;;;;23.05;10.18;;;17.70;99.90;;;;;;5017119;28;47403;-76
2023/10/01 08:52:30;;;;;;;20.50;10.68;;;17.80;99.90;;;;;;5020414;28;37398;-77
2023/10/01 08:54:57;;;;;;;20.48;9.88;;;17.80;99.90;;;;;;5045994;28;37564;-77
2023/10/01 08:57:45;;;;;;;21.65;10.48;;;17.90;99.90;;;;;;5039101;28;38849;-76
2023/10/01 09:00:17;;;;;;;21.17;10.10;;;18.10;99.90;;;;;;5037343;28;39489;-77
2023/10/01 09:02:52;;;;;;;17.30;9.02;;;18.20;99.90;;;;;;5042666;28;38329;-75
2023/10/01 09:05:29;;;;;;;27.83;10.27;;;18.30;99.90;;;;;;5023994;28;36311;-77
2023/10/01 09:10:53;;;;;;;19.05;10.32;;;18.40;99.90;;;;;;5042486;28;49413;-77
2023/10/01 09:13:25;;;;;;;18.73;9.70;;;18.40;99.90;;;;;;5045868;28;40479;-76
2023/10/01 09:15:55;;;;;;;19.42;10.35;;;18.50;99.90;;;;;;5048612;28;37809;-77
2023/10/01 09:18:26;;;;;;;22.08;10.25;;;18.70;99.90;;;;;;5030433;28;37603;-77
2023/10/01 09:21:08;;;;;;;18.17;9.45;;;18.70;99.90;;;;;;5027573;28;38507;-77
2023/10/01 09:23:57;;;;;;;21.27;10.93;;;18.90;99.90;;;;;;5028820;28;47661;-78
2023/10/01 09:26:53;;;;;;;22.75;10.35;;;19.00;99.90;;;;;;5018704;28;37442;-78
2023/10/01 09:29:21;;;;;;;18.05;9.07;;;19.20;99.90;;;;;;5043279;28;38698;-77
2023/10/01 09:31:58;;;;;;;17.05;8.88;;;19.30;99.90;;;;;;5046661;28;40890;-78
2023/10/01 09:34:36;;;;;;;22.90;10.18;;;19.40;99.90;;;;;;5042411;28;38203;-78
2023/10/01 09:37:12;;;;;;;21.90;9.50;;;19.60;99.90;;;;;;5045723;28;37198;-77
2023/10/01 09:39:43;;;;;;;19.90;9.10;;;19.70;99.90;;;;;;5036638;28;38002;-78
2023/10/01 09:42:25;;;;;;;21.40;9.73;;;19.80;99.90;;;;;;5050426;28;38672;-78
2023/10/01 09:44:55;;;;;;;17.60;8.75;;;20.00;99.90;;;;;;5031447;28;38294;-77
2023/10/01 09:47:27;;;;;;;19.23;9.30;;;20.10;99.90;;;;;;5015764;28;35978;-78
2023/10/01 09:49:54;;;;;;;16.70;8.93;;;20.30;99.90;;;;;;5022852;28;37641;-79
2023/10/01 09:52:30;;;;;;;21.58;9.27;;;20.30;99.90;;;;;;5039535;28;37872;-78
2023/10/01 09:55:06;;;;;;;18.10;9.13;;;20.40;99.90;;;;;;5041943;28;38209;-78
2023/10/01 09:57:34;;;;;;;23.25;9.27;;;20.50;99.90;;;;;;5034235;28;47632;-78
2023/10/01 10:00:17;;;;;;;16.67;8.57;;;20.60;99.90;;;;;;5040796;28;38695;-78
2023/10/01 10:02:53;;;;;;;20.83;9.93;;;20.70;99.90;;;;;;5033624;28;39718;-78
2023/10/01 10:05:28;;;;;;;19.98;9.02;;;20.80;99.90;;;;;;5041860;28;38112;-79
2023/10/01 10:08:13;;;;;;;22.27;9.95;;;20.90;99.90;;;;;;5038097;28;37634;-78
2023/10/01 10:10:52;;;;;;;19.17;9.30;;;20.90;99.90;;;;;;5045647;28;48369;-78
2023/10/01 10:13:57;;;;;;;19.42;9.75;;;20.90;99.90;;;;;;5013220;28;37588;-79
2023/10/01 10:16:31;;;;;;;16.55;8.90;;;20.90;99.90;;;;;;4995129;28;38868;-78
2023/10/01 10:19:04;;;;;;;19.10;9.73;;;21.10;99.90;;;;;;5027679;28;39455;-78
2023/10/01 10:24:29;;;;;;;15.20;8.68;;;21.40;99.90;;;;;;5044551;28;49405;-78
2023/10/01 10:26:56;;;;;;;17.52;9.13;;;21.50;99.90;;;;;;5042460;28;38327;-78
2023/10/01 10:30:01;;;;;;;16.52;8.68;;;21.70;99.90;;;;;;5040410;28;37077;-79
2023/10/01 10:32:28;;;;;;;16.83;8.63;;;22.00;98.20;;;;;;5020702;28;38753;-77
2023/10/01 10:35:15;;;;;;;15.32;8.48;;;21.80;99.90;;;;;;5024076;28;38688;-78
2023/10/01 10:37:56;;;;;;;18.08;9.07;;;21.70;96.00;;;;;;5034124;28;47269;-77
2023/10/01 10:40:23;;;;;;;15.93;8.27;;;21.60;99.70;;;;;;5020346;28;36482;-77
2023/10/01 10:42:58;;;;;;;15.35;8.43;;;21.50;99.90;;;;;;5041377;28;39530;-77
2023/10/01 10:45:42;;;;;;;18.92;9.38;;;21.50;99.70;;;;;;5029891;28;37946;-77
2023/10/01 10:48:21;;;;;;;17.95;8.52;;;21.50;99.90;;;;;;5026228;28;37361;-77
2023/10/01 10:50:49;;;;;;;18.77;8.68;;;21.40;99.90;;;;;;5039898;28;36472;-77
2023/10/01 10:53:25;;;;;;;16.67;8.30;;;21.60;99.90;;;;;;5034435;28;38164;-79
2023/10/01 10:55:53;;;;;;;15.85;8.18;;;21.70;99.90;;;;;;5029944;28;37811;-77
2023/10/01 10:58:22;;;;;;;16.35;8.20;;;21.90;99.90;;;;;;5028314;28;37527;-78
2023/10/01 11:00:48;;;;;;;17.85;8.05;;;22.00;99.90;;;;;;5037834;28;37597;-78
2023/10/01 11:03:16;;;;;;;18.20;8.77;;;22.10;99.90;;;;;;5019556;28;36975;-77
2023/10/01 11:05:49;;;;;;;20.45;10.10;;;22.00;94.20;;;;;;5035357;28;39625;-77
2023/10/01 11:08:28;;;;;;;17.67;8.77;;;22.00;99.30;;;;;;5030844;28;40298;-77
2023/10/01 11:10:55;;;;;;;15.30;8.43;;;22.20;93.50;;;;;;5013864;28;36169;-77
2023/10/01 11:13:37;;;;;;;17.42;8.82;;;22.30;95.80;;;;;;5036516;28;37820;-78
2023/10/01 11:16:13;;;;;;;16.17;8.40;;;22.50;99.90;;;;;;5020436;28;37984;-77
2023/10/01 11:18:50;;;;;;;15.98;8.05;;;22.50;86.50;;;;;;5022009;28;38586;-78
2023/10/01 11:21:31;;;;;;;16.80;8.13;;;22.70;95.10;;;;;;5042311;28;37294;-77
2023/10/01 11:24:00;;;;;;;14.75;7.80;;;22.80;94.10;;;;;;5037543;28;39189;-78
2023/10/01 11:26:27;;;;;;;16.77;8.05;;;22.90;80.40;;;;;;5038101;28;38842;-78
2023/10/01 11:28:57;;;;;;;17.05;7.95;;;22.90;80.50;;;;;;5019020;28;37277;-78
2023/10/01 11:31:25;;;;;;;14.30;7.68;;;22.90;84.60;;;;;;5020083;28;39142;-78
2023/10/01 11:33:58;;;;;;;15.90;8.05;;;22.70;87.10;;;;;;5039509;28;39736;-78
2023/10/01 11:36:24;;;;;;;16.45;7.50;;;22.80;94.70;;;;;;5036114;28;39206;-77
2023/10/01 11:38:50;;;;;;;17.00;8.38;;;22.80;85.70;;;;;;5021482;28;37595;-77
2023/10/01 11:41:18;;;;;;;16.90;7.82;;;22.70;87.30;;;;;;5026370;28;37415;-78
2023/10/01 11:43:58;;;;;;;16.83;7.95;;;22.80;94.30;;;;;;5023325;28;38899;-76
2023/10/01 11:49:15;;;;;;;18.40;7.35;;;22.70;68.70;;;;;;5036179;28;39416;-79
2023/10/01 11:51:50;;;;;;;16.98;7.88;;;22.80;98.40;;;;;;5016435;28;35970;-76
2023/10/01 11:54:18;;;;;;;17.20;7.65;;;22.90;95.50;;;;;;5039048;28;37932;-77
2023/10/01 11:57:04;;;;;;;16.80;7.88;;;23.00;91.10;;;;;;5047979;28;37718;-77
2023/10/01 11:59:33;;;;;;;18.75;8.13;;;23.10;91.00;;;;;;5047797;28;48859;-77
2023/10/01 12:04:45;;;;;;;16.25;8.13;;;23.30;97.90;;;;;;5038046;28;48756;-77
2023/10/01 12:07:18;;;;;;;16.73;8.00;;;23.30;67.80;;;;;;5034794;28;38917;-76
2023/10/01 12:09:52;;;;;;;15.60;7.20;;;23.40;67.00;;;;;;5021571;28;38666;-76
2023/10/01 12:12:36;;;;;;;16.52;8.25;;;23.30;85.70;;;;;;5025985;28;37224;-76
2023/10/01 12:15:51;;;;;;;16.08;8.00;;;23.30;61.40;;;;;;5020093;28;38976;-76
2023/10/01 12:17:50;;;;;;;15.52;7.75;;;23.10;70.80;;;;;;5033709;28;49227;-75
2023/10/01 12:20:22;;;;;;;15.50;7.35;;;23.00;62.00;;;;;;5046339;28;38408;-76
2023/10/01 12:25:53;;;;;;;16.67;8.57;;;23.10;74.00;;;;;;5049692;28;49415;-76
2023/10/01 12:28:29;;;;;;;14.60;7.72;;;23.00;79.70;;;;;;5049001;28;39173;-75
2023/10/01 12:30:57;;;;;;;16.77;8.55;;;23.10;78.40;;;;;;5027641;28;37541;-75
2023/10/01 12:33:24;;;;;;;13.25;7.88;;;23.20;62.80;;;;;;5026617;28;36329;-75
2023/10/01 12:35:52;;;;;;;16.23;8.63;;;23.10;64.00;;;;;;5021483;28;39158;-76
2023/10/01 12:40:52;;;;;;;15.50;8.50;;;23.10;66.90;;;;;;5042590;28;38380;-75
2023/10/01 12:43:38;;;;;;;16.90;8.43;;;23.20;72.70;;;;;;5023362;28;36427;-75
2023/10/01 12:46:13;;;;;;;18.58;8.88;;;23.20;59.20;;;;;;5028339;28;37718;-75
2023/10/01 12:51:33;;;;;;;15.98;7.80;;;23.40;81.90;;;;;;5050746;28;39229;-75
2023/10/01 12:54:00;;;;;;;15.07;8.55;;;23.50;59.30;;;;;;5053283;28;36200;-76
2023/10/01 12:56:44;;;;;;;15.68;8.55;;;23.60;53.00;;;;;;5049719;28;39877;-76
2023/10/01 12:59:18;;;;;;;17.15;8.43;;;23.60;51.30;;;;;;5044127;28;38733;-76
2023/10/01 13:01:51;;;;;;;16.85;8.07;;;23.50;56.40;;;;;;5046357;28;39011;-76
2023/10/01 13:04:25;;;;;;;17.60;9.23;;;23.40;57.90;;;;;;5052188;28;37466;-76
2023/10/01 13:07:00;;;;;;;15.85;8.15;;;23.40;57.50;;;;;;5046815;28;40163;-76
2023/10/01 13:12:14;;;;;;;16.60;8.38;;;23.30;54.80;;;;;;5042613;28;39309;-76
2023/10/01 13:14:41;;;;;;;17.52;8.73;;;23.30;73.70;;;;;;5045527;28;37348;-78
2023/10/01 13:17:19;;;;;;;21.02;10.02;;;23.30;54.00;;;;;;5045312;28;39060;-77
2023/10/01 13:19:48;;;;;;;16.67;8.15;;;23.40;51.90;;;;;;5047661;28;38470;-75
2023/10/01 13:22:20;;;;;;;15.77;8.48;;;23.40;46.80;;;;;;5047559;28;38042;-75
2023/10/01 13:24:53;;;;;;;15.20;8.68;;;23.20;51.50;;;;;;5021948;28;36504;-75
2023/10/01 13:27:22;;;;;;;28.02;9.77;;;23.20;54.20;;;;;;5026209;28;39845;-76
2023/10/01 13:29:49;;;;;;;21.23;8.98;;;23.30;67.80;;;;;;5039347;28;38845;-75
2023/10/01 13:32:26;;;;;;;20.67;8.63;;;23.30;57.30;;;;;;5040572;28;38057;-75
2023/10/01 13:34:58;;;;;;;17.88;8.10;;;23.40;74.30;;;;;;5048269;28;36959;-76
2023/10/01 14:10:25;;;;;;;20.15;10.40;;;23.20;67.10;;;;;;5037143;28;39147;-75
2023/10/01 14:13:00;;;;;;;17.77;8.70;;;23.20;54.70;;;;;;5026652;28;37485;-76
2023/10/01 14:15:27;;;;;;;17.50;9.38;;;23.20;77.20;;;;;;5026805;28;37143;-75
2023/10/01 14:17:54;;;;;;;13.23;7.95;;;23.20;66.00;;;;;;5032685;28;36129;-76
2023/10/01 14:25:58;;;;;;;16.50;8.85;;;23.20;68.90;;;;;;5055217;28;39370;-76
2023/10/01 14:28:28;;;;;;;18.60;9.32;;;23.20;65.40;;;;;;5048449;28;37464;-75
2023/10/01 14:31:07;;;;;;;16.58;8.65;;;23.10;77.00;;;;;;5023679;28;39180;-75
2023/10/01 14:33:34;;;;;;;18.20;8.95;;;23.10;70.20;;;;;;5045372;28;48543;-76